Main page
METAR-TAF:

METAR-TAF

Airports :

Zadar Airport

Zadar, Croatia

latitude: 44-06N, longitude: 015-21E, elevation: 82 m

Current weather observation

The report was made 19 minutes ago, at 09:30 UTC
Wind 11 kt from the East/Northeast, varying between North and East/Southeast
Temperature 12°C
Humidity 40%
Pressure 1022 hPa
Visibility 10 km or more
no clouds below 1500 m and no cumulonimbus

METAR: LDZD 170930Z 07011KT 350V120 CAVOK 12/M01 Q1022 NOSIG

Time: 10:49 (09:49 UTC)

Forecast

The report was made 4 hours and 24 minutes ago, at 05:25 UTC
Forecast valid from 17 at 06 UTC to 18 at 06 UTC
Wind 12 kt from the East/Northeast
Visibility 10 km or more
no clouds below 1500 m and no cumulonimbus
Temporary
from 17 at 12 UTC to 18 at 06 UTC
Wind 15 kt from the East/Northeast with gusts up to 25 kt

TAF: LDZD 170525Z 1706/1806 06012KT CAVOK TX13/1712Z TN05/1805Z TEMPO 1712/1806 06015G25KT

Weather observations and forecasts of more than 4000 airports (METAR and TAF reports).

The available stations are represented by yellow and red dots on the map.

Hover mouse over dot to see the name of the station.

Then click to see weather observations and forecasts.

To change the map : click on the green buttons with a black cross to zoom in, on the green button with a dash to zoom out, or on the green arrows for adjacent maps.


METAR-TAF: